Time;durP1;ratioP1;P1;durP2;ratioP2;P2;SDS_P1;SDS_P2;PMS_P1;PMS_P2;Temp;Humidity;BMP_temperature;BMP_pressure;BME280_temperature;BME280_humidity;BME280_pressure;Samples;Min_cycle;Max_cycle;Signal;HPM_P1;HPM_P2
2023/04/13 00:02:09;;;;;;;;;;;;;;;-140.72;100.00;52928.63;5034559;28;19921;-72
2023/04/13 00:04:34;;;;;;;;;;;;;;;-140.72;100.00;52926.59;5029823;28;20418;-71
2023/04/13 00:07:02;;;;;;;;;;;;;;;-140.72;100.00;52948.91;5023487;28;19925;-71
2023/04/13 00:09:30;;;;;;;;;;;;;;;-140.72;100.00;52926.59;5029528;28;19929;-71
2023/04/13 00:11:57;;;;;;;;;;;;;;;-140.72;100.00;52908.31;5029282;28;19925;-71
2023/04/13 00:14:26;;;;;;;;;;;;;;;-140.72;100.00;52922.53;5026522;28;19976;-69
2023/04/13 00:16:51;;;;;;;;;;;;;;;-140.72;100.00;52908.31;5026098;28;20471;-71
2023/04/13 00:19:18;;;;;;;;;;;;;;;-140.72;100.00;52928.63;5022839;28;19953;-71
2023/04/13 00:21:45;;;;;;;;;;;;;;;-140.72;100.00;52924.56;5021458;28;19968;-71
2023/04/13 00:24:15;;;;;;;;;;;;;;;-140.72;100.00;52930.66;5032887;28;19920;-71
2023/04/13 00:26:40;;;;;;;;;;;;;;;-140.72;100.00;52930.66;5031627;27;19927;-71
2023/04/13 00:29:06;;;;;;;;;;;;;;;-140.72;100.00;52926.59;5031712;28;19917;-71
2023/04/13 00:31:32;;;;;;;;;;;;;;;-140.72;100.00;52936.72;5027021;28;20410;-71
2023/04/13 00:33:57;;;;;;;;;;;;;;;-140.72;100.00;52928.63;5029611;28;19921;-71
2023/04/13 00:36:23;;;;;;;;;;;;;;;-140.72;100.00;52902.22;5030758;28;20290;-71
2023/04/13 00:38:48;;;;;;;;;;;;;;;-140.72;100.00;52912.38;5034498;28;19984;-71
2023/04/13 00:41:14;;;;;;;;;;;;;;;-140.72;100.00;52879.91;5032893;28;19925;-71
2023/04/13 00:43:39;;;;;;;;;;;;;;;-140.72;100.00;52896.16;5031261;28;20002;-71
2023/04/13 00:46:05;;;;;;;;;;;;;;;-140.72;100.00;52957.03;5027785;28;20336;-71
2023/04/13 00:48:32;;;;;;;;;;;;;;;-140.72;100.00;52918.47;5029370;28;20442;-71
2023/04/13 00:50:58;;;;;;;;;;;;;;;-140.72;100.00;52926.59;5026817;28;19921;-71
2023/04/13 00:53:23;;;;;;;;;;;;;;;-140.72;100.00;52965.16;5031506;28;20390;-71
2023/04/13 00:55:48;;;;;;;;;;;;;;;-140.72;100.00;52922.53;5028254;28;19917;-71
2023/04/13 00:58:14;;;;;;;;;;;;;;;-140.72;100.00;52975.28;5034265;28;19921;-71
2023/04/13 01:00:41;;;;;;;;;;;;;;;-140.72;100.00;52898.16;5027497;28;19958;-71
2023/04/13 01:03:08;;;;;;;;;;;;;;;-140.72;100.00;52896.16;5032219;28;20000;-71
2023/04/13 01:05:36;;;;;;;;;;;;;;;-140.72;100.00;52967.16;5028440;28;19943;-71
2023/04/13 01:08:13;;;;;;;;;;;;;;;-140.72;100.00;52930.66;5035138;27;19931;-71
2023/04/13 01:10:48;;;;;;;;;;;;;;;-140.72;100.00;52928.63;5014051;28;19937;-71
2023/04/13 01:13:22;;;;;;;;;;;;;;;-140.72;100.00;52918.47;5017777;27;19930;-71
2023/04/13 01:16:08;;;;;;;;;;;;;;;-140.72;100.00;52912.38;5020232;28;19936;-71
2023/04/13 01:18:37;;;;;;;;;;;;;;;-140.72;100.00;52932.66;5017539;28;19929;-71
2023/04/13 01:21:03;;;;;;;;;;;;;;;-140.72;100.00;52928.63;5020399;28;19982;-71
2023/04/13 01:23:37;;;;;;;;;;;;;;;-140.72;100.00;52910.34;5016135;28;19926;-72
2023/04/13 01:26:07;;;;;;;;;;;;;;;-140.72;100.00;52894.13;5020747;28;19921;-71
2023/04/13 01:28:33;;;;;;;;;;;;;;;-140.72;100.00;52934.69;5020784;28;19966;-71
2023/04/13 01:31:04;;;;;;;;;;;;;;;-140.72;100.00;52967.16;5020783;28;19929;-71
2023/04/13 01:33:32;;;;;;;;;;;;;;;-140.72;100.00;52948.91;5016216;28;19968;-71
2023/04/13 01:35:59;;;;;;;;;;;;;;;-140.72;100.00;52932.66;5019288;28;19970;-71
2023/04/13 01:38:24;;;;;;;;;;;;;;;-140.72;100.00;52894.13;5019621;28;19921;-71
2023/04/13 01:40:50;;;;;;;;;;;;;;;-140.72;100.00;52928.63;5025112;27;20403;-71
2023/04/13 01:43:17;;;;;;;;;;;;;;;-140.72;100.00;52930.66;5019752;28;19926;-71
2023/04/13 01:46:03;;;;;;;;;;;;;;;-140.72;100.00;52902.22;5018919;27;20004;-72
2023/04/13 01:48:29;;;;;;;;;;;;;;;-140.72;100.00;52922.53;5033391;28;20054;-71
2023/04/13 01:51:02;;;;;;;;;;;;;;;-140.72;100.00;52892.09;5020921;27;20027;-71
2023/04/13 01:53:29;;;;;;;;;;;;;;;-140.72;100.00;52890.06;5020123;28;20072;-72
2023/04/13 01:55:54;;;;;;;;;;;;;;;-140.72;100.00;52922.53;5018870;28;20502;-72
2023/04/13 01:58:22;;;;;;;;;;;;;;;-140.72;100.00;52950.94;5022158;28;19968;-71
2023/04/13 02:00:47;;;;;;;;;;;;;;;-140.72;100.00;52932.66;5017391;28;19928;-71
2023/04/13 02:03:14;;;;;;;;;;;;;;;-140.72;100.00;52938.75;5020251;28;20408;-72
2023/04/13 02:05:39;;;;;;;;;;;;;;;-140.72;100.00;52940.78;5022604;28;19940;-71
2023/04/13 02:08:05;;;;;;;;;;;;;;;-140.72;100.00;52934.69;5016322;28;19925;-72
2023/04/13 02:10:36;;;;;;;;;;;;;;;-140.72;100.00;52918.47;5025977;28;20434;-72
2023/04/13 02:13:06;;;;;;;;;;;;;;;-140.72;100.00;52987.47;5027444;28;19969;-72
2023/04/13 02:15:36;;;;;;;;;;;;;;;-140.72;100.00;52952.97;5029213;28;20170;-71
2023/04/13 02:18:02;;;;;;;;;;;;;;;-140.72;100.00;52942.81;5033506;27;19923;-71
2023/04/13 02:20:31;;;;;;;;;;;;;;;-140.72;100.00;52928.63;5024897;28;19921;-71
2023/04/13 02:22:57;;;;;;;;;;;;;;;-140.72;100.00;52942.81;5027340;28;19928;-71
2023/04/13 02:25:22;;;;;;;;;;;;;;;-140.72;100.00;52918.47;5026029;28;19927;-71
2023/04/13 02:27:47;;;;;;;;;;;;;;;-140.72;100.00;52938.75;5046654;28;19921;-71
2023/04/13 02:30:20;;;;;;;;;;;;;;;-140.72;100.00;52908.31;5026689;28;19956;-71
2023/04/13 02:32:48;;;;;;;;;;;;;;;-140.72;100.00;52959.06;5027966;28;20012;-71
2023/04/13 02:35:13;;;;;;;;;;;;;;;-140.72;100.00;52920.50;5027730;28;19921;-71
2023/04/13 02:37:45;;;;;;;;;;;;;;;-140.72;100.00;52955.00;5030937;28;19995;-71
2023/04/13 02:40:11;;;;;;;;;;;;;;;-140.72;100.00;52950.94;5023460;28;19921;-71
2023/04/13 02:42:40;;;;;;;;;;;;;;;-140.72;100.00;52890.06;5023776;28;20808;-71
2023/04/13 02:45:06;;;;;;;;;;;;;;;-140.72;100.00;52969.19;5030233;28;20004;-72
2023/04/13 02:47:35;;;;;;;;;;;;;;;-140.72;100.00;52926.59;5016746;28;19932;-72
2023/04/13 02:50:00;;;;;;;;;;;;;;;-140.72;100.00;52971.22;5019654;28;20020;-72
2023/04/13 02:52:26;;;;;;;;;;;;;;;-140.72;100.00;52916.44;5019657;28;20004;-72
2023/04/13 02:54:53;;;;;;;;;;;;;;;-140.72;100.00;52916.44;5014914;28;19928;-72
2023/04/13 02:57:19;;;;;;;;;;;;;;;-140.72;100.00;52950.94;5023016;28;20003;-70
2023/04/13 02:59:44;;;;;;;;;;;;;;;-140.72;100.00;52936.72;5033170;28;19970;-70
2023/04/13 03:02:09;;;;;;;;;;;;;;;-140.72;100.00;52930.66;5016305;28;19936;-71
2023/04/13 03:04:34;;;;;;;;;;;;;;;-140.72;100.00;52940.78;5017431;28;19925;-70
2023/04/13 03:07:03;;;;;;;;;;;;;;;-140.72;100.00;52918.47;5018391;28;19933;-70
2023/04/13 03:09:29;;;;;;;;;;;;;;;-140.72;100.00;52912.38;5015790;28;19925;-70
2023/04/13 03:11:55;;;;;;;;;;;;;;;-140.72;100.00;52908.31;5015939;28;19922;-70
2023/04/13 03:14:20;;;;;;;;;;;;;;;-140.72;100.00;52877.88;5023120;28;19928;-70
2023/04/13 03:16:46;;;;;;;;;;;;;;;-140.72;100.00;52942.81;5030863;28;19917;-70
2023/04/13 03:19:11;;;;;;;;;;;;;;;-140.72;100.00;52932.66;5025811;28;20490;-70
2023/04/13 03:21:36;;;;;;;;;;;;;;;-140.72;100.00;52912.38;5020733;28;19937;-70
2023/04/13 03:24:02;;;;;;;;;;;;;;;-140.72;100.00;52926.59;5021702;28;20009;-71
2023/04/13 03:26:27;;;;;;;;;;;;;;;-140.72;100.00;52952.97;5026765;28;19933;-70
2023/04/13 03:28:52;;;;;;;;;;;;;;;-140.72;100.00;52918.47;5024965;28;19921;-70
2023/04/13 03:31:18;;;;;;;;;;;;;;;-140.72;100.00;52946.88;5031654;28;19921;-70
2023/04/13 03:33:44;;;;;;;;;;;;;;;-140.72;100.00;52950.94;5027873;28;19968;-71
2023/04/13 03:36:09;;;;;;;;;;;;;;;-140.72;100.00;52950.94;5034328;28;19956;-71
2023/04/13 03:38:35;;;;;;;;;;;;;;;-140.72;100.00;52936.72;5023266;28;19926;-70
2023/04/13 03:41:00;;;;;;;;;;;;;;;-140.72;100.00;52914.41;5025733;28;20419;-71
2023/04/13 03:43:26;;;;;;;;;;;;;;;-140.72;100.00;52932.66;5015762;28;20291;-71
2023/04/13 03:45:51;;;;;;;;;;;;;;;-140.72;100.00;52938.75;5016339;28;19955;-70
2023/04/13 03:48:16;;;;;;;;;;;;;;;-140.72;100.00;52928.63;5020896;28;19921;-71
2023/04/13 03:50:42;;;;;;;;;;;;;;;-140.72;100.00;52908.31;5031071;28;19922;-70
2023/04/13 03:53:07;;;;;;;;;;;;;;;-140.72;100.00;52906.28;5027729;28;19921;-71
2023/04/13 03:55:32;;;;;;;;;;;;;;;-140.72;100.00;52888.03;5030295;28;19921;-71
2023/04/13 03:57:57;;;;;;;;;;;;;;;-140.72;100.00;52920.50;5033386;28;19922;-71
2023/04/13 04:00:22;;;;;;;;;;;;;;;-140.72;100.00;52930.66;5021889;28;19974;-71
2023/04/13 04:02:48;;;;;;;;;;;;;;;-140.72;100.00;52926.59;5023007;28;20116;-71
2023/04/13 04:05:13;;;;;;;;;;;;;;;-140.72;100.00;52940.78;5016888;28;19925;-71
2023/04/13 04:07:38;;;;;;;;;;;;;;;-140.72;100.00;52936.72;5021448;28;20167;-70
2023/04/13 04:10:04;;;;;;;;;;;;;;;-140.72;100.00;52906.28;5016215;28;19962;-71
2023/04/13 04:12:29;;;;;;;;;;;;;;;-140.72;100.00;52936.72;5019513;28;19929;-71
2023/04/13 04:14:54;;;;;;;;;;;;;;;-140.72;100.00;52908.31;5024003;28;21610;-72
2023/04/13 04:17:19;;;;;;;;;;;;;;;-140.72;100.00;52888.03;5028655;28;19921;-73
2023/04/13 04:19:45;;;;;;;;;;;;;;;-140.72;100.00;52918.47;5029686;28;19921;-71
2023/04/13 04:22:12;;;;;;;;;;;;;;;-140.72;100.00;52914.41;5036020;28;19924;-70
2023/04/13 04:24:38;;;;;;;;;;;;;;;-140.72;100.00;52898.16;5028186;28;20287;-71
2023/04/13 04:27:04;;;;;;;;;;;;;;;-140.72;100.00;52900.19;5030518;28;19923;-71
2023/04/13 04:29:33;;;;;;;;;;;;;;;-140.72;100.00;52912.38;5031365;28;20423;-72
2023/04/13 04:32:02;;;;;;;;;;;;;;;-140.72;100.00;52912.38;5036598;28;19917;-71
2023/04/13 04:34:27;;;;;;;;;;;;;;;-140.72;100.00;52898.16;5026336;28;19921;-71
2023/04/13 04:36:53;;;;;;;;;;;;;;;-140.72;100.00;52902.22;5033092;28;20393;-71
2023/04/13 04:39:21;;;;;;;;;;;;;;;-140.72;100.00;52938.75;5032979;28;19924;-71
2023/04/13 04:41:47;;;;;;;;;;;;;;;-140.72;100.00;52924.56;5018685;28;20975;-70
2023/04/13 04:44:15;;;;;;;;;;;;;;;-140.72;100.00;52930.66;5028116;28;19917;-70
2023/04/13 04:46:42;;;;;;;;;;;;;;;-140.72;100.00;52918.47;5026563;28;20379;-70
2023/04/13 04:49:07;;;;;;;;;;;;;;;-140.72;100.00;52924.56;5031755;28;20294;-70
2023/04/13 04:51:32;;;;;;;;;;;;;;;-140.72;100.00;52926.59;5032426;28;19917;-70
2023/04/13 04:54:00;;;;;;;;;;;;;;;-140.72;100.00;52912.38;5040031;28;19918;-70
2023/04/13 04:56:26;;;;;;;;;;;;;;;-140.72;100.00;52950.94;5020163;28;19917;-71
2023/04/13 04:59:10;;;;;;;;;;;;;;;-140.72;100.00;52938.75;5042827;28;19932;-71
2023/04/13 05:01:37;;;;;;;;;;;;;;;-140.72;100.00;52926.59;5016626;28;19924;-71
2023/04/13 05:04:02;;;;;;;;;;;;;;;-140.72;100.00;52940.78;5021445;28;20380;-71
2023/04/13 05:06:31;;;;;;;;;;;;;;;-140.72;100.00;52916.44;5024739;28;19927;-72
2023/04/13 05:08:57;;;;;;;;;;;;;;;-140.72;100.00;52914.41;5018136;28;19921;-71
2023/04/13 05:11:22;;;;;;;;;;;;;;;-140.72;100.00;52926.59;5038613;28;19917;-71
2023/04/13 05:13:47;;;;;;;;;;;;;;;-140.72;100.00;52926.59;5031325;28;19917;-71
2023/04/13 05:16:13;;;;;;;;;;;;;;;-140.72;100.00;52950.94;5097369;27;20283;-71
2023/04/13 05:18:45;;;;;;;;;;;;;;;-140.72;100.00;52914.41;5012777;28;19922;-70
2023/04/13 05:21:11;;;;;;;;;;;;;;;-140.72;100.00;52940.78;5017889;28;19924;-71
2023/04/13 05:23:37;;;;;;;;;;;;;;;-140.72;100.00;52950.94;5020419;28;19925;-70
2023/04/13 05:26:02;;;;;;;;;;;;;;;-140.72;100.00;52963.13;5047049;27;19918;-72
2023/04/13 05:28:27;;;;;;;;;;;;;;;-140.72;100.00;52946.88;5013250;28;20376;-71
2023/04/13 05:30:52;;;;;;;;;;;;;;;-140.72;100.00;52908.31;5026959;28;19949;-71
2023/04/13 05:33:26;;;;;;;;;;;;;;;-140.72;100.00;52922.53;5027622;28;19917;-71
2023/04/13 05:35:51;;;;;;;;;;;;;;;-140.72;100.00;52894.13;5034561;28;19964;-72
2023/04/13 05:38:16;;;;;;;;;;;;;;;-140.72;100.00;52904.25;5032210;28;19944;-72
2023/04/13 05:40:42;;;;;;;;;;;;;;;-140.72;100.00;52918.47;5029144;28;19994;-71
2023/04/13 05:43:07;;;;;;;;;;;;;;;-140.72;100.00;52912.38;5055051;27;20310;-72
2023/04/13 05:45:32;;;;;;;;;;;;;;;-140.72;100.00;52948.91;5026727;28;19921;-71
2023/04/13 05:47:58;;;;;;;;;;;;;;;-140.72;100.00;52926.59;5026488;28;20292;-72
2023/04/13 05:50:23;;;;;;;;;;;;;;;-140.72;100.00;52930.66;5025651;28;20383;-71
2023/04/13 05:52:48;;;;;;;;;;;;;;;-140.72;100.00;52952.97;5028981;28;20291;-71
2023/04/13 05:55:13;;;;;;;;;;;;;;;-140.72;100.00;52959.06;5025762;28;20364;-74
2023/04/13 05:57:39;;;;;;;;;;;;;;;-140.72;100.00;52942.81;5025178;28;19995;-72
2023/04/13 06:00:06;;;;;;;;;;;;;;;-140.72;100.00;52924.56;5031579;28;19919;-72
2023/04/13 06:02:33;;;;;;;;;;;;;;;-140.72;100.00;52930.66;5025003;28;20367;-72
2023/04/13 06:05:00;;;;;;;;;;;;;;;-140.72;100.00;52955.00;5027073;28;19925;-74
2023/04/13 06:07:26;;;;;;;;;;;;;;;-140.72;100.00;52902.22;5023553;28;19951;-75
2023/04/13 06:09:52;;;;;;;;;;;;;;;-140.72;100.00;52934.69;5026890;28;19925;-74
2023/04/13 06:12:17;;;;;;;;;;;;;;;-140.72;100.00;52908.31;5027606;28;19927;-72
2023/04/13 06:14:43;;;;;;;;;;;;;;;-140.72;100.00;52865.69;5045329;28;19928;-71
2023/04/13 06:17:08;;;;;;;;;;;;;;;-140.72;100.00;52932.66;5039034;28;19917;-71
2023/04/13 06:19:33;;;;;;;;;;;;;;;-140.72;100.00;52924.56;5030115;28;19925;-71
2023/04/13 06:21:59;;;;;;;;;;;;;;;-140.72;100.00;52950.94;5029943;28;20043;-71
2023/04/13 06:24:24;;;;;;;;;;;;;;;-140.72;100.00;52900.19;5029734;28;19969;-71
2023/04/13 06:26:50;;;;;;;;;;;;;;;-140.72;100.00;52922.53;5029410;28;19917;-71
2023/04/13 06:29:15;;;;;;;;;;;;;;;-140.72;100.00;52926.59;5030521;28;19924;-71
2023/04/13 06:31:40;;;;;;;;;;;;;;;-140.72;100.00;52938.75;5026936;28;19921;-71
2023/04/13 06:34:06;;;;;;;;;;;;;;;-140.72;100.00;52940.78;5028172;28;19926;-72
2023/04/13 06:36:31;;;;;;;;;;;;;;;-140.72;100.00;52896.16;5019025;28;19925;-72
2023/04/13 06:38:57;;;;;;;;;;;;;;;-140.72;100.00;52922.53;5037876;28;19925;-72
2023/04/13 06:41:22;;;;;;;;;;;;;;;-140.72;100.00;52918.47;5028097;28;19921;-72
2023/04/13 06:43:48;;;;;;;;;;;;;;;-140.72;100.00;52908.31;5023109;28;19917;-72
2023/04/13 06:46:13;;;;;;;;;;;;;;;-140.72;100.00;52934.69;5021550;28;19917;-71
2023/04/13 06:48:38;;;;;;;;;;;;;;;-140.72;100.00;52910.34;5028308;28;19940;-72
2023/04/13 06:51:04;;;;;;;;;;;;;;;-140.72;100.00;52863.66;5028913;28;19928;-72
2023/04/13 06:53:29;;;;;;;;;;;;;;;-140.72;100.00;52865.69;5028691;28;19924;-72
2023/04/13 06:55:55;;;;;;;;;;;;;;;-140.72;100.00;52890.06;5037124;27;20407;-72
2023/04/13 06:58:20;;;;;;;;;;;;;;;-140.72;100.00;52865.69;5038481;28;19944;-72
2023/04/13 07:00:46;;;;;;;;;;;;;;;-140.72;100.00;52857.59;5030639;28;19956;-71
2023/04/13 07:03:11;;;;;;;;;;;;;;;-140.72;100.00;52888.03;5019621;28;20295;-72
2023/04/13 07:05:37;;;;;;;;;;;;;;;-140.72;100.00;52886.00;5024144;28;19957;-75
2023/04/13 07:08:02;;;;;;;;;;;;;;;-140.72;100.00;52916.44;5020983;28;19961;-72
2023/04/13 07:10:28;;;;;;;;;;;;;;;-140.72;100.00;52890.06;5013146;28;20397;-72
2023/04/13 07:12:53;;;;;;;;;;;;;;;-140.72;100.00;52896.16;5024073;28;20253;-72
2023/04/13 07:15:18;;;;;;;;;;;;;;;-140.72;100.00;52869.75;5021197;28;19921;-72
2023/04/13 07:17:44;;;;;;;;;;;;;;;-140.72;100.00;52871.78;5017504;28;19917;-72
2023/04/13 07:20:10;;;;;;;;;;;;;;;-140.72;100.00;52886.00;5024188;28;19929;-72
2023/04/13 07:22:36;;;;;;;;;;;;;;;-140.72;100.00;52867.72;5028310;28;20383;-72
2023/04/13 07:25:01;;;;;;;;;;;;;;;-140.72;100.00;52894.13;5027342;28;19964;-72
2023/04/13 07:27:27;;;;;;;;;;;;;;;-140.72;100.00;52918.47;5026123;28;20012;-72
2023/04/13 07:29:53;;;;;;;;;;;;;;;-140.72;100.00;52875.84;5028479;28;19982;-71
2023/04/13 07:32:19;;;;;;;;;;;;;;;-140.72;100.00;52877.88;5031709;28;19963;-72
2023/04/13 07:34:44;;;;;;;;;;;;;;;-140.72;100.00;52835.25;5026917;28;20382;-72
2023/04/13 07:37:10;;;;;;;;;;;;;;;-140.72;100.00;52853.53;5031916;28;19917;-72
2023/04/13 07:39:35;;;;;;;;;;;;;;;-140.72;100.00;52888.03;5033312;28;20291;-72
2023/04/13 07:42:00;;;;;;;;;;;;;;;-140.72;100.00;52873.81;5030504;28;20021;-73
2023/04/13 07:44:26;;;;;;;;;;;;;;;-140.72;100.00;52877.88;5031733;28;19981;-72
2023/04/13 07:46:51;;;;;;;;;;;;;;;-140.72;100.00;52865.69;5032043;28;19928;-72
2023/04/13 07:49:16;;;;;;;;;;;;;;;-140.72;100.00;52835.25;5031654;28;20376;-72
2023/04/13 07:51:41;;;;;;;;;;;;;;;-140.72;100.00;52855.56;5031470;28;20283;-72
2023/04/13 07:54:07;;;;;;;;;;;;;;;-140.72;100.00;52829.19;5031968;28;20371;-72
2023/04/13 07:56:32;;;;;;;;;;;;;;;-140.72;100.00;52841.34;5031029;28;19925;-74
2023/04/13 07:58:57;;;;;;;;;;;;;;;-140.72;100.00;52853.53;5029860;28;19917;-73
2023/04/13 08:01:22;;;;;;;;;;;;;;;-140.72;100.00;52855.56;5029586;28;19974;-71
2023/04/13 08:03:48;;;;;;;;;;;;;;;-140.72;100.00;52821.06;5015675;28;19928;-71
2023/04/13 08:06:13;;;;;;;;;;;;;;;-140.72;100.00;52857.59;5029803;28;20299;-71
2023/04/13 08:08:38;;;;;;;;;;;;;;;-140.72;100.00;52859.63;5026605;28;20368;-71
2023/04/13 08:11:04;;;;;;;;;;;;;;;-140.72;100.00;52877.88;5033869;28;19918;-71
2023/04/13 08:13:29;;;;;;;;;;;;;;;-140.72;100.00;52847.44;5030723;28;19921;-70
2023/04/13 08:15:56;;;;;;;;;;;;;;;-140.72;100.00;52865.69;5029767;28;19921;-71
2023/04/13 08:18:25;;;;;;;;;;;;;;;-140.72;100.00;52855.56;5031861;28;19917;-71
2023/04/13 08:20:51;;;;;;;;;;;;;;;-140.72;100.00;52853.53;5031192;28;19977;-70
2023/04/13 08:23:16;;;;;;;;;;;;;;;-140.72;100.00;52869.75;5031173;28;19922;-71
2023/04/13 08:25:43;;;;;;;;;;;;;;;-140.72;100.00;52859.63;5030200;28;20295;-72
2023/04/13 08:28:08;;;;;;;;;;;;;;;-140.72;100.00;52806.84;5030682;28;20428;-71
2023/04/13 08:30:34;;;;;;;;;;;;;;;-140.72;100.00;52800.75;5031006;28;19921;-70
2023/04/13 08:33:00;;;;;;;;;;;;;;;-140.72;100.00;52792.66;5030937;28;19921;-71
2023/04/13 08:35:25;;;;;;;;;;;;;;;-140.72;100.00;52817.00;5031641;28;19925;-71
2023/04/13 08:37:51;;;;;;;;;;;;;;;-140.72;100.00;52821.06;5025342;28;19984;-71
2023/04/13 08:40:17;;;;;;;;;;;;;;;-140.72;100.00;52817.00;5029911;28;19936;-71
2023/04/13 08:42:42;;;;;;;;;;;;;;;-140.72;100.00;52800.75;5029709;28;19962;-70
2023/04/13 08:45:08;;;;;;;;;;;;;;;-140.72;100.00;52837.28;5030677;28;19917;-71
2023/04/13 08:47:33;;;;;;;;;;;;;;;-140.72;100.00;52821.06;5030201;28;20306;-71
2023/04/13 08:49:59;;;;;;;;;;;;;;;-140.72;100.00;52821.06;5026127;28;20302;-71
2023/04/13 08:52:25;;;;;;;;;;;;;;;-140.72;100.00;52812.94;5030760;28;19918;-71
2023/04/13 08:54:52;;;;;;;;;;;;;;;-140.72;100.00;52837.28;5030193;28;19917;-71
2023/04/13 08:57:18;;;;;;;;;;;;;;;-140.72;100.00;52784.53;5028022;28;20028;-71
2023/04/13 08:59:44;;;;;;;;;;;;;;;-140.72;100.00;52798.72;5027069;28;19917;-70
2023/04/13 09:02:10;;;;;;;;;;;;;;;-140.72;100.00;52796.72;5030505;28;19924;-71
2023/04/13 09:04:37;;;;;;;;;;;;;;;-140.72;100.00;52790.63;5022972;28;19940;-70
2023/04/13 09:07:03;;;;;;;;;;;;;;;-140.72;100.00;52735.81;5026436;28;19917;-70
2023/04/13 09:09:31;;;;;;;;;;;;;;;-140.72;100.00;52764.25;5026203;28;19974;-71
2023/04/13 09:11:56;;;;;;;;;;;;;;;-140.72;100.00;52796.72;5029417;28;19921;-71
2023/04/13 09:14:22;;;;;;;;;;;;;;;-140.72;100.00;52788.59;5029882;28;20396;-71
2023/04/13 09:16:48;;;;;;;;;;;;;;;-140.72;100.00;52762.22;5030762;28;20031;-71
2023/04/13 09:19:13;;;;;;;;;;;;;;;-140.72;100.00;52754.09;5030125;28;20012;-70
2023/04/13 09:21:40;;;;;;;;;;;;;;;-140.72;100.00;52768.28;5030685;28;19965;-70
2023/04/13 09:24:05;;;;;;;;;;;;;;;-140.72;100.00;52733.78;5027330;28;20253;-71
2023/04/13 09:26:44;;;;;;;;;;;;;;;-140.72;100.00;52731.75;5030212;28;19969;-70
2023/04/13 09:29:13;;;;;;;;;;;;;;;-140.72;100.00;52719.59;5018662;28;19921;-70
2023/04/13 09:31:38;;;;;;;;;;;;;;;-140.72;85.67;52768.28;5021726;28;19924;-71
2023/04/13 09:34:04;;;;;;;;;;;;;;;-140.72;100.00;52762.22;5016218;28;20276;-73
2023/04/13 09:36:31;;;;;;;;;;;;;;;-140.72;99.49;52768.28;5018917;28;19943;-72
2023/04/13 09:38:56;;;;;;;;;;;;;;;-140.72;88.12;52766.25;5028580;28;19928;-73
2023/04/13 09:41:32;;;;;;;;;;;;;;;-140.72;88.87;52823.09;5028543;28;19921;-72
2023/04/13 09:44:01;;;;;;;;;;;;;;;-140.72;90.57;52796.72;5028425;27;20391;-72
2023/04/13 09:46:27;;;;;;;;;;;;;;;-140.72;87.84;52800.75;5029545;28;19924;-72
2023/04/13 09:49:00;;;;;;;;;;;;;;;-140.72;83.21;52823.09;5032716;27;19933;-73
2023/04/13 09:51:26;;;;;;;;;;;;;;;-140.72;100.00;52778.44;5029839;28;19924;-72
2023/04/13 09:53:52;;;;;;;;;;;;;;;-140.72;78.02;52762.22;5031563;28;20353;-74
2023/04/13 09:56:19;;;;;;;;;;;;;;;-140.72;65.78;52784.53;5027968;28;19917;-73
2023/04/13 09:58:45;;;;;;;;;;;;;;;-140.72;64.92;52782.50;5021170;28;19917;-73
2023/04/13 10:01:10;;;;;;;;;;;;;;;-140.72;56.61;52750.03;5027733;28;20008;-73
2023/04/13 10:03:36;;;;;;;;;;;;;;;-140.72;46.21;52796.72;5070637;27;19995;-73
2023/04/13 10:06:06;;;;;;;;;;;;;;;-140.72;28.77;52697.28;5029470;28;19925;-73
2023/04/13 10:08:32;;;;;;;;;;;;;;;-140.72;0.00;52683.06;5027985;28;19925;-73
2023/04/13 10:10:59;;;;;;;;;;;;;;;-140.72;0.00;52636.38;5027312;28;19918;-73
2023/04/13 10:13:26;;;;;;;;;;;;;;;-140.72;0.00;52676.97;5027153;28;20011;-73
2023/04/13 10:16:10;;;;;;;;;;;;;;;-140.72;0.00;52636.38;5033646;27;20027;-76
2023/04/13 10:18:35;;;;;;;;;;;;;;;-140.72;0.00;52717.56;5025260;28;19982;-72
2023/04/13 10:21:01;;;;;;;;;;;;;;;-140.72;0.00;52685.09;5026319;28;20032;-73
2023/04/13 10:23:27;;;;;;;;;;;;;;;-140.72;0.00;52681.03;5022547;28;20000;-74
2023/04/13 10:25:53;;;;;;;;;;;;;;;-140.72;0.00;52691.19;5027599;28;19929;-72
2023/04/13 10:28:19;;;;;;;;;;;;;;;-140.72;0.00;52752.06;5026624;28;19929;-72
2023/04/13 10:30:49;;;;;;;;;;;;;;;-140.72;0.00;52743.94;5027726;28;19917;-72
2023/04/13 10:33:14;;;;;;;;;;;;;;;-140.72;0.00;52766.25;5021871;28;19925;-71
2023/04/13 10:35:40;;;;;;;;;;;;;;;-140.72;0.00;52739.88;5028236;28;19917;-71
2023/04/13 10:38:07;;;;;;;;;;;;;;;-140.72;0.00;52652.63;5029934;28;20396;-73
2023/04/13 10:40:45;;;;;;;;;;;;;;;-140.72;0.00;52739.88;5029110;28;20379;-74
2023/04/13 10:43:11;;;;;;;;;;;;;;;-140.72;0.00;52782.50;5020319;28;19928;-74
2023/04/13 10:45:37;;;;;;;;;;;;;;;-140.72;0.00;52774.38;5016900;28;19925;-71
2023/04/13 10:48:02;;;;;;;;;;;;;;;-140.72;0.00;52711.47;5014298;28;20292;-71
2023/04/13 10:50:27;;;;;;;;;;;;;;;-140.72;0.00;52735.81;5029410;28;19948;-71
2023/04/13 10:52:56;;;;;;;;;;;;;;;-140.72;0.00;52750.03;5019060;28;20473;-71
2023/04/13 10:55:22;;;;;;;;;;;;;;;-140.72;0.00;52784.53;5029009;28;19932;-71
2023/04/13 10:57:47;;;;;;;;;;;;;;;-140.72;0.00;52762.22;5030663;28;20335;-71
2023/04/13 11:00:20;;;;;;;;;;;;;;;-140.72;0.00;52723.66;5027208;28;20012;-71
2023/04/13 11:02:45;;;;;;;;;;;;;;;-140.72;0.00;52748.00;5025173;28;20399;-71
2023/04/13 11:05:14;;;;;;;;;;;;;;;-140.72;0.00;52756.13;5028196;28;19921;-71
2023/04/13 11:07:40;;;;;;;;;;;;;;;-140.72;0.00;52782.50;5028448;28;20012;-72
2023/04/13 11:10:06;;;;;;;;;;;;;;;-140.72;0.00;52768.28;5028680;28;19929;-71
2023/04/13 11:12:31;;;;;;;;;;;;;;;-140.72;0.00;52758.16;5017379;28;19969;-71
2023/04/13 11:14:56;;;;;;;;;;;;;;;-140.72;0.00;52754.09;5014188;28;19925;-72
2023/04/13 11:17:22;;;;;;;;;;;;;;;-140.72;0.00;52760.19;5023224;28;20368;-71
2023/04/13 11:19:51;;;;;;;;;;;;;;;-140.72;0.00;52624.22;5017118;28;19924;-71
2023/04/13 11:22:26;;;;;;;;;;;;;;;-140.72;0.00;52567.41;5029725;28;20402;-72
2023/04/13 11:24:51;;;;;;;;;;;;;;;-140.72;0.00;52658.72;5017665;28;19921;-72
2023/04/13 11:27:22;;;;;;;;;;;;;;;-140.72;0.00;52670.88;5021754;28;19929;-72
2023/04/13 11:29:57;;;;;;;;;;;;;;;-140.72;0.00;52670.88;5028642;28;19925;-71
2023/04/13 11:32:22;;;;;;;;;;;;;;;-140.72;0.00;52603.94;5027762;28;19929;-72
2023/04/13 11:34:50;;;;;;;;;;;;;;;-140.72;0.00;52476.09;5030059;28;19917;-72
2023/04/13 11:37:16;;;;;;;;;;;;;;;-140.72;0.00;52557.25;5029070;28;19917;-72
2023/04/13 11:39:44;;;;;;;;;;;;;;;-140.72;0.00;52616.09;5029635;28;19921;-72
2023/04/13 11:42:10;;;;;;;;;;;;;;;-140.72;0.00;52705.38;5017505;28;19921;-72
2023/04/13 11:44:36;;;;;;;;;;;;;;;-140.72;0.00;52683.06;5012452;28;19925;-72
2023/04/13 11:47:01;;;;;;;;;;;;;;;-140.72;0.00;52616.09;5017144;28;19928;-72
2023/04/13 11:49:27;;;;;;;;;;;;;;;-140.72;0.00;52518.69;5028231;28;19917;-72
2023/04/13 11:51:53;;;;;;;;;;;;;;;-140.72;0.00;52467.97;5020547;28;19921;-72
2023/04/13 11:54:18;;;;;;;;;;;;;;;-140.72;0.00;52417.25;5035151;28;20011;-72
2023/04/13 11:56:43;;;;;;;;;;;;;;;-140.72;0.00;52539.00;5024819;28;20020;-72
2023/04/13 11:59:09;;;;;;;;;;;;;;;-140.72;0.00;52417.25;5027445;28;19924;-72
2023/04/13 12:01:34;;;;;;;;;;;;;;;-140.72;0.00;52470.00;5033076;28;19921;-72
2023/04/13 12:04:03;;;;;;;;;;;;;;;-140.72;0.00;52465.94;5027627;28;19969;-72
2023/04/13 12:06:29;;;;;;;;;;;;;;;-140.72;0.00;52419.28;5026159;28;19952;-72
2023/04/13 12:08:58;;;;;;;;;;;;;;;-140.72;0.00;52411.16;5032675;28;19921;-71
2023/04/13 12:11:24;;;;;;;;;;;;;;;-140.72;0.00;52378.69;5017894;28;19924;-72
2023/04/13 12:13:52;;;;;;;;;;;;;;;-140.72;0.00;52463.91;5028196;28;19917;-72
2023/04/13 12:16:28;;;;;;;;;;;;;;;-140.72;0.00;52553.19;5026965;28;19928;-75
2023/04/13 12:18:53;;;;;;;;;;;;;;;-140.72;0.00;52630.31;5026485;28;19922;-72